Time;durP1;ratioP1;P1;durP2;ratioP2;P2;SDS_P1;SDS_P2;PMS_P1;PMS_P2;Temp;Humidity;BMP_temperature;BMP_pressure;BME280_temperature;BME280_humidity;BME280_pressure;Samples;Min_cycle;Max_cycle;Signal;HPM_P1;HPM_P2
2022/04/11 00:00:38;;;;;;;;;;;;;;;;;;5115256;28;20370;-53
2022/04/11 00:03:04;;;;;;;;;;;;;;;;;;5115284;28;19919;-56
2022/04/11 00:05:31;;;;;;;;;;;;;;;;;;5114653;28;19923;-53
2022/04/11 00:07:58;;;;;;;;;;;;;;;;;;5114691;28;19960;-49
2022/04/11 00:10:24;;;;;;;;;;;;;;;;;;5114377;28;19914;-51
2022/04/11 00:12:51;;;;;;;;;;;;;;;;;;5115315;28;19908;-48
2022/04/11 00:15:17;;;;;;;;;;;;;;;;;;5115024;28;20003;-51
2022/04/11 00:17:44;;;;;;;;;;;;;;;;;;5115056;28;20433;-52
2022/04/11 00:20:10;;;;;;;;;;;;;;;;;;5114613;28;20414;-49
2022/04/11 00:22:37;;;;;;;;;;;;;;;;;;5114513;28;20261;-50
2022/04/11 00:25:03;;;;;;;;;;;;;;;;;;5114842;28;20250;-49
2022/04/11 00:27:30;;;;;;;;;;;;;;;;;;5114554;28;19934;-49
2022/04/11 00:29:56;;;;;;;;;;;;;;;;;;5114422;28;19908;-52
2022/04/11 00:32:22;;;;;;;;;;;;;;;;;;5114113;28;19995;-54
2022/04/11 00:34:49;;;;;;;;;;;;;;;;;;5113996;28;19916;-49
2022/04/11 00:37:16;;;;;;;;;;;;;;;;;;5114025;28;19972;-51
2022/04/11 00:39:42;;;;;;;;;;;;;;;;;;5113128;28;19998;-57
2022/04/11 00:42:09;;;;;;;;;;;;;;;;;;5113982;28;19965;-52
2022/04/11 00:44:35;;;;;;;;;;;;;;;;;;5114057;28;19908;-54
2022/04/11 00:47:02;;;;;;;;;;;;;;;;;;5114267;28;19908;-51
2022/04/11 00:49:28;;;;;;;;;;;;;;;;;;5114388;27;19911;-52
2022/04/11 00:51:55;;;;;;;;;;;;;;;;;;5097788;28;20381;-53
2022/04/11 00:54:21;;;;;;;;;;;;;;;;;;5093933;28;19919;-58
2022/04/11 00:56:48;;;;;;;;;;;;;;;;;;5093580;28;19913;-56
2022/04/11 00:59:15;;;;;;;;;;;;;;;;;;5093468;28;19915;-59
2022/04/11 01:01:42;;;;;;;;;;;;;;;;;;5094243;28;19942;-55
2022/04/11 01:04:23;;;;;;;;;;;;;;;;;;5093351;28;19965;-52
2022/04/11 01:06:49;;;;;;;;;;;;;;;;;;5094248;28;19915;-53
2022/04/11 01:09:16;;;;;;;;;;;;;;;;;;5093435;28;20315;-54
2022/04/11 01:11:42;;;;;;;;;;;;;;;;;;5110628;28;19908;-55
2022/04/11 01:14:08;;;;;;;;;;;;;;;;;;5113278;28;19908;-52
2022/04/11 01:16:35;;;;;;;;;;;;;;;;;;5113841;28;20370;-58
2022/04/11 01:19:02;;;;;;;;;;;;;;;;;;5113738;28;19983;-55
2022/04/11 01:21:30;;;;;;;;;;;;;;;;;;5113244;28;19952;-55
2022/04/11 01:23:57;;;;;;;;;;;;;;;;;;5113810;28;20386;-50
2022/04/11 01:26:24;;;;;;;;;;;;;;;;;;5113226;28;20341;-57
2022/04/11 01:28:50;;;;;;;;;;;;;;;;;;5112714;28;19915;-57
2022/04/11 01:31:17;;;;;;;;;;;;;;;;;;5113196;28;19924;-52
2022/04/11 01:33:43;;;;;;;;;;;;;;;;;;5112297;28;19908;-48
2022/04/11 01:36:10;;;;;;;;;;;;;;;;;;5112544;28;19928;-49
2022/04/11 01:38:36;;;;;;;;;;;;;;;;;;5113284;28;19912;-49
2022/04/11 01:41:03;;;;;;;;;;;;;;;;;;5113682;28;19950;-50
2022/04/11 01:43:29;;;;;;;;;;;;;;;;;;5113285;28;19908;-55
2022/04/11 01:45:56;;;;;;;;;;;;;;;;;;5112698;28;19912;-55
2022/04/11 01:48:22;;;;;;;;;;;;;;;;;;5112405;28;19908;-55
2022/04/11 01:50:49;;;;;;;;;;;;;;;;;;5113405;28;19909;-51
2022/04/11 01:53:15;;;;;;;;;;;;;;;;;;5111306;28;20362;-56
2022/04/11 01:55:41;;;;;;;;;;;;;;;;;;5112620;28;20487;-53
2022/04/11 01:58:08;;;;;;;;;;;;;;;;;;5112672;28;19914;-54
2022/04/11 02:00:34;;;;;;;;;;;;;;;;;;5112331;28;19908;-51
2022/04/11 02:03:01;;;;;;;;;;;;;;;;;;5112314;28;20016;-52
2022/04/11 02:05:27;;;;;;;;;;;;;;;;;;5112310;28;20392;-54
2022/04/11 02:07:54;;;;;;;;;;;;;;;;;;5112664;28;20319;-59
2022/04/11 02:10:20;;;;;;;;;;;;;;;;;;5112580;28;20357;-56
2022/04/11 02:12:49;;;;;;;;;;;;;;;;;;5112859;28;20266;-56
2022/04/11 02:15:16;;;;;;;;;;;;;;;;;;5112612;28;20281;-53
2022/04/11 02:17:42;;;;;;;;;;;;;;;;;;5112521;28;20255;-54
2022/04/11 02:20:11;;;;;;;;;;;;;;;;;;5096398;28;19999;-51
2022/04/11 02:22:37;;;;;;;;;;;;;;;;;;5091837;28;20041;-51
2022/04/11 02:25:04;;;;;;;;;;;;;;;;;;5092025;28;19909;-55
2022/04/11 02:27:30;;;;;;;;;;;;;;;;;;5092347;28;20082;-54
2022/04/11 02:29:56;;;;;;;;;;;;;;;;;;5092364;28;19908;-55
2022/04/11 02:32:23;;;;;;;;;;;;;;;;;;5094657;28;19961;-47
2022/04/11 02:34:49;;;;;;;;;;;;;;;;;;5112591;28;20405;-58
2022/04/11 02:37:16;;;;;;;;;;;;;;;;;;5112244;28;19907;-55
2022/04/11 02:39:42;;;;;;;;;;;;;;;;;;5111326;28;19912;-54
2022/04/11 02:42:09;;;;;;;;;;;;;;;;;;5112261;28;19965;-55
2022/04/11 02:44:35;;;;;;;;;;;;;;;;;;5112102;28;19908;-57
2022/04/11 02:47:02;;;;;;;;;;;;;;;;;;5111893;28;19950;-55
2022/04/11 02:49:28;;;;;;;;;;;;;;;;;;5112043;28;19919;-56
2022/04/11 02:51:54;;;;;;;;;;;;;;;;;;5112137;28;19914;-53
2022/04/11 02:54:21;;;;;;;;;;;;;;;;;;5111893;28;20320;-50
2022/04/11 02:56:47;;;;;;;;;;;;;;;;;;5111736;28;19915;-52
2022/04/11 02:59:14;;;;;;;;;;;;;;;;;;5110958;28;19958;-57
2022/04/11 03:01:40;;;;;;;;;;;;;;;;;;5112015;28;20339;-48
2022/04/11 03:04:07;;;;;;;;;;;;;;;;;;5112033;28;20285;-55
2022/04/11 03:06:33;;;;;;;;;;;;;;;;;;5114220;28;19912;-54
2022/04/11 03:09:00;;;;;;;;;;;;;;;;;;5095735;28;19999;-57
2022/04/11 03:11:26;;;;;;;;;;;;;;;;;;5095163;28;19919;-49
2022/04/11 03:13:53;;;;;;;;;;;;;;;;;;5095176;28;19908;-49
2022/04/11 03:16:19;;;;;;;;;;;;;;;;;;5095845;28;20331;-57
2022/04/11 03:18:46;;;;;;;;;;;;;;;;;;5095533;28;20362;-56
2022/04/11 03:21:12;;;;;;;;;;;;;;;;;;5095039;28;19969;-55
2022/04/11 03:23:38;;;;;;;;;;;;;;;;;;5095571;28;19908;-56
2022/04/11 03:26:05;;;;;;;;;;;;;;;;;;5095812;28;19908;-55
2022/04/11 03:28:31;;;;;;;;;;;;;;;;;;5095639;28;19914;-58
2022/04/11 03:30:59;;;;;;;;;;;;;;;;;;5095772;28;20379;-57
2022/04/11 03:33:25;;;;;;;;;;;;;;;;;;5095657;28;20231;-57
2022/04/11 03:35:52;;;;;;;;;;;;;;;;;;5094997;28;19916;-52
2022/04/11 03:38:18;;;;;;;;;;;;;;;;;;5095091;28;19908;-56
2022/04/11 03:40:44;;;;;;;;;;;;;;;;;;5095232;28;19944;-56
2022/04/11 03:43:11;;;;;;;;;;;;;;;;;;5115218;28;20364;-48
2022/04/11 03:45:37;;;;;;;;;;;;;;;;;;5115341;28;19965;-55
2022/04/11 03:48:04;;;;;;;;;;;;;;;;;;5102153;28;19931;-57
2022/04/11 03:50:30;;;;;;;;;;;;;;;;;;5095443;28;19919;-51
2022/04/11 03:52:57;;;;;;;;;;;;;;;;;;5094928;28;19912;-50
2022/04/11 03:55:24;;;;;;;;;;;;;;;;;;5094377;28;19931;-48
2022/04/11 03:57:50;;;;;;;;;;;;;;;;;;5094611;28;19912;-46
2022/04/11 04:00:19;;;;;;;;;;;;;;;;;;5094169;28;19996;-56
2022/04/11 04:02:46;;;;;;;;;;;;;;;;;;5097615;28;19915;-55
2022/04/11 04:05:12;;;;;;;;;;;;;;;;;;5115189;28;19931;-52
2022/04/11 04:07:42;;;;;;;;;;;;;;;;;;5113996;28;21162;-54
2022/04/11 04:10:09;;;;;;;;;;;;;;;;;;5115212;28;20381;-40
2022/04/11 04:12:35;;;;;;;;;;;;;;;;;;5114444;28;20362;-47
2022/04/11 04:15:02;;;;;;;;;;;;;;;;;;5114911;28;20334;-44
2022/04/11 04:17:28;;;;;;;;;;;;;;;;;;5114488;28;19999;-45
2022/04/11 04:19:55;;;;;;;;;;;;;;;;;;5115117;28;19908;-45
2022/04/11 04:22:22;;;;;;;;;;;;;;;;;;5114512;28;19912;-46
2022/04/11 04:24:48;;;;;;;;;;;;;;;;;;5115016;28;19946;-47
2022/04/11 04:27:15;;;;;;;;;;;;;;;;;;5115092;28;19908;-44
2022/04/11 04:29:41;;;;;;;;;;;;;;;;;;5113356;28;19998;-49
2022/04/11 04:32:08;;;;;;;;;;;;;;;;;;5114917;28;19933;-45
2022/04/11 04:34:34;;;;;;;;;;;;;;;;;;5114498;28;20014;-51
2022/04/11 04:37:01;;;;;;;;;;;;;;;;;;5113827;28;20400;-42
2022/04/11 04:39:27;;;;;;;;;;;;;;;;;;5114727;28;19961;-60
2022/04/11 04:41:54;;;;;;;;;;;;;;;;;;5114617;28;19960;-49
2022/04/11 04:44:20;;;;;;;;;;;;;;;;;;5114415;28;19940;-53
2022/04/11 04:46:47;;;;;;;;;;;;;;;;;;5113606;28;19915;-45
2022/04/11 04:49:13;;;;;;;;;;;;;;;;;;5114033;28;19915;-50
2022/04/11 04:51:40;;;;;;;;;;;;;;;;;;5114203;28;19918;-46
2022/04/11 04:54:06;;;;;;;;;;;;;;;;;;5113858;28;19907;-53
2022/04/11 04:56:32;;;;;;;;;;;;;;;;;;5114110;28;20354;-53
2022/04/11 04:58:59;;;;;;;;;;;;;;;;;;5114090;28;20363;-50
2022/04/11 05:01:25;;;;;;;;;;;;;;;;;;5113883;28;20358;-52
2022/04/11 05:03:52;;;;;;;;;;;;;;;;;;5113572;28;19955;-49
2022/04/11 05:06:20;;;;;;;;;;;;;;;;;;5113736;28;19908;-49
2022/04/11 05:08:47;;;;;;;;;;;;;;;;;;5113820;28;19915;-51
2022/04/11 05:11:13;;;;;;;;;;;;;;;;;;5112628;28;19930;-52
2022/04/11 05:13:40;;;;;;;;;;;;;;;;;;5113257;28;19916;-52
2022/04/11 05:16:06;;;;;;;;;;;;;;;;;;5113391;28;20007;-49
2022/04/11 05:18:33;;;;;;;;;;;;;;;;;;5113477;28;19911;-44
2022/04/11 05:20:59;;;;;;;;;;;;;;;;;;5113382;28;19908;-51
2022/04/11 05:23:26;;;;;;;;;;;;;;;;;;5112232;28;19916;-53
2022/04/11 05:25:52;;;;;;;;;;;;;;;;;;5113416;28;19912;-49
2022/04/11 05:28:19;;;;;;;;;;;;;;;;;;5112658;28;19908;-52
2022/04/11 05:30:45;;;;;;;;;;;;;;;;;;5113272;28;19911;-52
2022/04/11 05:33:12;;;;;;;;;;;;;;;;;;5113447;28;19907;-50
2022/04/11 05:35:38;;;;;;;;;;;;;;;;;;5113024;28;19916;-55
2022/04/11 05:38:05;;;;;;;;;;;;;;;;;;5112758;28;19943;-56
2022/04/11 05:40:31;;;;;;;;;;;;;;;;;;5112975;28;19999;-52
2022/04/11 05:42:58;;;;;;;;;;;;;;;;;;5111771;28;19908;-57
2022/04/11 05:45:24;;;;;;;;;;;;;;;;;;5113308;28;20002;-49
2022/04/11 05:47:50;;;;;;;;;;;;;;;;;;5113199;28;19911;-56
2022/04/11 05:50:17;;;;;;;;;;;;;;;;;;5112905;28;19942;-54
2022/04/11 05:52:44;;;;;;;;;;;;;;;;;;5112821;28;20002;-50
2022/04/11 05:55:11;;;;;;;;;;;;;;;;;;5113212;28;20014;-56
2022/04/11 05:57:37;;;;;;;;;;;;;;;;;;5111993;28;20351;-56
2022/04/11 06:00:04;;;;;;;;;;;;;;;;;;5113039;28;20239;-50
2022/04/11 06:02:30;;;;;;;;;;;;;;;;;;5112836;28;19907;-56
2022/04/11 06:04:57;;;;;;;;;;;;;;;;;;5072268;28;20020;-52
2022/04/11 06:07:25;;;;;;;;;;;;;;;;;;5071268;28;20378;-56
2022/04/11 06:09:52;;;;;;;;;;;;;;;;;;5072208;28;19931;-51
2022/04/11 06:12:20;;;;;;;;;;;;;;;;;;5072156;28;19970;-52
2022/04/11 06:14:47;;;;;;;;;;;;;;;;;;5071714;28;20003;-55
2022/04/11 06:17:13;;;;;;;;;;;;;;;;;;5073762;28;19912;-56
2022/04/11 06:19:39;;;;;;;;;;;;;;;;;;5113086;28;19912;-53
2022/04/11 06:22:06;;;;;;;;;;;;;;;;;;5112610;28;20350;-54
2022/04/11 06:24:32;;;;;;;;;;;;;;;;;;5111253;28;19911;-49
2022/04/11 06:26:59;;;;;;;;;;;;;;;;;;5112774;28;19916;-51
2022/04/11 06:29:26;;;;;;;;;;;;;;;;;;5111853;28;20377;-57
2022/04/11 06:31:52;;;;;;;;;;;;;;;;;;5112857;28;20342;-54
2022/04/11 06:34:18;;;;;;;;;;;;;;;;;;5111983;28;20267;-53
2022/04/11 06:36:45;;;;;;;;;;;;;;;;;;5112122;28;19916;-53
2022/04/11 06:39:11;;;;;;;;;;;;;;;;;;5092525;28;20227;-51
2022/04/11 06:41:38;;;;;;;;;;;;;;;;;;5096546;28;19958;-51
2022/04/11 06:44:04;;;;;;;;;;;;;;;;;;5096279;28;19904;-49
2022/04/11 06:46:31;;;;;;;;;;;;;;;;;;5096378;28;19940;-58
2022/04/11 06:48:58;;;;;;;;;;;;;;;;;;5096242;28;19918;-56
2022/04/11 06:51:24;;;;;;;;;;;;;;;;;;5096249;28;19965;-47
2022/04/11 06:53:51;;;;;;;;;;;;;;;;;;5096319;28;19908;-50
2022/04/11 06:56:17;;;;;;;;;;;;;;;;;;5096013;28;19966;-52
2022/04/11 06:58:44;;;;;;;;;;;;;;;;;;5095876;28;19953;-50
2022/04/11 07:01:10;;;;;;;;;;;;;;;;;;5096321;28;19948;-57
2022/04/11 07:03:37;;;;;;;;;;;;;;;;;;5096330;28;19999;-55
2022/04/11 07:06:03;;;;;;;;;;;;;;;;;;5095600;28;19917;-53
2022/04/11 07:08:30;;;;;;;;;;;;;;;;;;5095508;28;19912;-50
2022/04/11 07:10:56;;;;;;;;;;;;;;;;;;5096069;28;19908;-55
2022/04/11 07:13:22;;;;;;;;;;;;;;;;;;5096054;28;19904;-57
2022/04/11 07:15:49;;;;;;;;;;;;;;;;;;5095945;28;20315;-50
2022/04/11 07:18:15;;;;;;;;;;;;;;;;;;5095145;28;20303;-52
2022/04/11 07:20:42;;;;;;;;;;;;;;;;;;5095237;28;20004;-58
2022/04/11 07:23:08;;;;;;;;;;;;;;;;;;5095570;28;19956;-52
2022/04/11 07:25:35;;;;;;;;;;;;;;;;;;5095725;28;19915;-48
2022/04/11 07:28:01;;;;;;;;;;;;;;;;;;5095174;28;19911;-56
2022/04/11 07:30:28;;;;;;;;;;;;;;;;;;5095275;28;20018;-61
2022/04/11 07:32:54;;;;;;;;;;;;;;;;;;5101553;28;19933;-58
2022/04/11 07:35:21;;;;;;;;;;;;;;;;;;5115535;28;19938;-56
2022/04/11 07:37:47;;;;;;;;;;;;;;;;;;5115853;28;20315;-52
2022/04/11 07:40:14;;;;;;;;;;;;;;;;;;5115695;28;19904;-54
2022/04/11 07:42:40;;;;;;;;;;;;;;;;;;5113856;28;20281;-53
2022/04/11 07:45:07;;;;;;;;;;;;;;;;;;5116065;28;19915;-51
2022/04/11 07:47:33;;;;;;;;;;;;;;;;;;5115588;28;19914;-53
2022/04/11 07:50:00;;;;;;;;;;;;;;;;;;5115459;28;19995;-54
2022/04/11 07:52:26;;;;;;;;;;;;;;;;;;5108372;28;19916;-55
2022/04/11 07:54:53;;;;;;;;;;;;;;;;;;5094634;28;20008;-51
2022/04/11 07:57:19;;;;;;;;;;;;;;;;;;5094948;28;20282;-57
2022/04/11 07:59:45;;;;;;;;;;;;;;;;;;5095013;28;19915;-54
2022/04/11 08:02:12;;;;;;;;;;;;;;;;;;5094394;28;20266;-53
2022/04/11 08:04:38;;;;;;;;;;;;;;;;;;5093965;28;20018;-53
2022/04/11 08:07:05;;;;;;;;;;;;;;;;;;5105946;28;19907;-55
2022/04/11 08:09:31;;;;;;;;;;;;;;;;;;5114757;28;19908;-49
2022/04/11 08:11:58;;;;;;;;;;;;;;;;;;5115241;28;19908;-55
2022/04/11 08:14:24;;;;;;;;;;;;;;;;;;5114741;28;19994;-54
2022/04/11 08:16:51;;;;;;;;;;;;;;;;;;5114745;28;20374;-54
2022/04/11 08:19:17;;;;;;;;;;;;;;;;;;5113714;28;19912;-57
2022/04/11 08:21:44;;;;;;;;;;;;;;;;;;5115301;28;19908;-57
2022/04/11 08:24:10;;;;;;;;;;;;;;;;;;5114513;28;19998;-55
2022/04/11 08:26:37;;;;;;;;;;;;;;;;;;5115324;28;19910;-53
2022/04/11 08:29:03;;;;;;;;;;;;;;;;;;5114237;28;20409;-51
2022/04/11 08:31:30;;;;;;;;;;;;;;;;;;5115161;28;19912;-57
2022/04/11 08:33:56;;;;;;;;;;;;;;;;;;5114727;28;20407;-56
2022/04/11 08:36:24;;;;;;;;;;;;;;;;;;5114557;28;19957;-55
2022/04/11 08:38:52;;;;;;;;;;;;;;;;;;5115090;28;19919;-51
2022/04/11 08:41:19;;;;;;;;;;;;;;;;;;5114571;28;20140;-54
2022/04/11 08:43:46;;;;;;;;;;;;;;;;;;5114607;28;19911;-58
2022/04/11 08:46:13;;;;;;;;;;;;;;;;;;5114827;28;19915;-58
2022/04/11 08:48:39;;;;;;;;;;;;;;;;;;5114885;28;20382;-55
2022/04/11 08:51:06;;;;;;;;;;;;;;;;;;5113758;28;20270;-55
2022/04/11 08:53:32;;;;;;;;;;;;;;;;;;5114828;28;19950;-45
2022/04/11 08:55:59;;;;;;;;;;;;;;;;;;5113838;28;20355;-50
2022/04/11 08:58:25;;;;;;;;;;;;;;;;;;5114081;28;19907;-41
2022/04/11 09:00:52;;;;;;;;;;;;;;;;;;5114074;28;20311;-56
2022/04/11 09:03:18;;;;;;;;;;;;;;;;;;5114364;28;20428;-43
2022/04/11 09:05:45;;;;;;;;;;;;;;;;;;5113473;28;20371;-49
2022/04/11 09:08:11;;;;;;;;;;;;;;;;;;5113750;28;19931;-48
2022/04/11 09:10:37;;;;;;;;;;;;;;;;;;5114300;28;20313;-44
2022/04/11 09:13:04;;;;;;;;;;;;;;;;;;5113013;28;19908;-46
2022/04/11 09:15:30;;;;;;;;;;;;;;;;;;5113863;28;20017;-47
2022/04/11 09:17:57;;;;;;;;;;;;;;;;;;5114231;28;19908;-46
2022/04/11 09:20:23;;;;;;;;;;;;;;;;;;5113601;28;19919;-48
2022/04/11 09:22:50;;;;;;;;;;;;;;;;;;5114207;28;19915;-43
2022/04/11 09:25:16;;;;;;;;;;;;;;;;;;5113938;28;19911;-44
2022/04/11 09:27:43;;;;;;;;;;;;;;;;;;5114371;28;20370;-48
2022/04/11 09:30:09;;;;;;;;;;;;;;;;;;5113644;28;19908;-47
2022/04/11 09:32:36;;;;;;;;;;;;;;;;;;5114008;28;19908;-42
2022/04/11 09:35:02;;;;;;;;;;;;;;;;;;5113185;28;19919;-43
2022/04/11 09:37:29;;;;;;;;;;;;;;;;;;5113857;28;19912;-47
2022/04/11 09:39:58;;;;;;;;;;;;;;;;;;5113810;28;20379;-44
2022/04/11 09:42:24;;;;;;;;;;;;;;;;;;5113468;28;19949;-44
2022/04/11 09:44:51;;;;;;;;;;;;;;;;;;5113982;28;19907;-45
2022/04/11 09:47:17;;;;;;;;;;;;;;;;;;5114252;28;19996;-51
2022/04/11 09:49:44;;;;;;;;;;;;;;;;;;5113769;28;19908;-50
2022/04/11 09:52:12;;;;;;;;;;;;;;;;;;5113688;28;19911;-46
2022/04/11 09:54:38;;;;;;;;;;;;;;;;;;5113769;28;19964;-46
2022/04/11 09:57:05;;;;;;;;;;;;;;;;;;5113511;28;20251;-51
2022/04/11 09:59:31;;;;;;;;;;;;;;;;;;5113455;28;19908;-49
2022/04/11 10:01:58;;;;;;;;;;;;;;;;;;5113562;28;19908;-53
2022/04/11 10:04:24;;;;;;;;;;;;;;;;;;5113200;28;19927;-45
2022/04/11 10:06:51;;;;;;;;;;;;;;;;;;5113668;28;19954;-56
2022/04/11 10:09:21;;;;;;;;;;;;;;;;;;5113668;28;19947;-52
2022/04/11 10:11:48;;;;;;;;;;;;;;;;;;5113607;28;19919;-47
2022/04/11 10:14:23;;;;;;;;;;;;;;;;;;5112866;28;19915;-51
2022/04/11 10:16:49;;;;;;;;;;;;;;;;;;5113216;28;20434;-49
2022/04/11 10:19:16;;;;;;;;;;;;;;;;;;5113445;28;20273;-53
2022/04/11 10:21:42;;;;;;;;;;;;;;;;;;5113251;28;19915;-51
2022/04/11 10:24:10;;;;;;;;;;;;;;;;;;5113196;28;19914;-54
2022/04/11 10:26:36;;;;;;;;;;;;;;;;;;5113406;28;20373;-54
2022/04/11 10:29:03;;;;;;;;;;;;;;;;;;5113548;28;20266;-52
2022/04/11 10:31:29;;;;;;;;;;;;;;;;;;5113269;28;20441;-57
2022/04/11 10:33:56;;;;;;;;;;;;;;;;;;5113659;28;20439;-50
2022/04/11 10:36:22;;;;;;;;;;;;;;;;;;5112395;28;19958;-54
2022/04/11 10:38:49;;;;;;;;;;;;;;;;;;5112919;28;19911;-55
2022/04/11 10:41:15;;;;;;;;;;;;;;;;;;5113141;28;19907;-56
2022/04/11 10:43:42;;;;;;;;;;;;;;;;;;5113493;28;19908;-54
2022/04/11 10:46:08;;;;;;;;;;;;;;;;;;5113240;28;19911;-52
2022/04/11 10:48:34;;;;;;;;;;;;;;;;;;5113153;28;19908;-55
2022/04/11 10:51:01;;;;;;;;;;;;;;;;;;5112851;28;19912;-56
2022/04/11 10:53:27;;;;;;;;;;;;;;;;;;5113892;28;19912;-57
2022/04/11 10:55:54;;;;;;;;;;;;;;;;;;5112074;28;19923;-57
2022/04/11 10:58:21;;;;;;;;;;;;;;;;;;5113032;28;20007;-49
2022/04/11 11:00:48;;;;;;;;;;;;;;;;;;5113344;28;20316;-48
2022/04/11 11:03:15;;;;;;;;;;;;;;;;;;5113330;28;19908;-48
2022/04/11 11:05:41;;;;;;;;;;;;;;;;;;5112814;28;20429;-54
2022/04/11 11:08:11;;;;;;;;;;;;;;;;;;5112539;28;19954;-44
2022/04/11 11:10:38;;;;;;;;;;;;;;;;;;5112999;28;19969;-57
2022/04/11 11:13:04;;;;;;;;;;;;;;;;;;5112998;28;19914;-55
2022/04/11 11:15:32;;;;;;;;;;;;;;;;;;5112687;28;20036;-55
2022/04/11 11:17:58;;;;;;;;;;;;;;;;;;5112859;28;19908;-55
2022/04/11 11:20:25;;;;;;;;;;;;;;;;;;5112391;28;19995;-53
2022/04/11 11:22:51;;;;;;;;;;;;;;;;;;5112675;28;19992;-45
2022/04/11 11:25:18;;;;;;;;;;;;;;;;;;5112920;28;19907;-53
2022/04/11 11:27:44;;;;;;;;;;;;;;;;;;5115320;28;19915;-49
2022/04/11 11:30:11;;;;;;;;;;;;;;;;;;5116554;28;19967;-53
2022/04/11 11:32:37;;;;;;;;;;;;;;;;;;5114768;28;19986;-53
2022/04/11 11:35:05;;;;;;;;;;;;;;;;;;5116123;28;19915;-55
2022/04/11 11:37:32;;;;;;;;;;;;;;;;;;5117020;28;19908;-54
2022/04/11 11:39:59;;;;;;;;;;;;;;;;;;5115472;28;20320;-57
2022/04/11 11:42:25;;;;;;;;;;;;;;;;;;5116391;28;20029;-52
2022/04/11 11:44:52;;;;;;;;;;;;;;;;;;5116708;28;19904;-51
2022/04/11 11:47:18;;;;;;;;;;;;;;;;;;5095633;28;19915;-55
2022/04/11 11:49:45;;;;;;;;;;;;;;;;;;5095991;28;19908;-56
2022/04/11 11:52:11;;;;;;;;;;;;;;;;;;5095468;28;19951;-56
2022/04/11 11:54:38;;;;;;;;;;;;;;;;;;5095881;28;19934;-52
2022/04/11 11:57:04;;;;;;;;;;;;;;;;;;5095729;28;19912;-55
2022/04/11 11:59:31;;;;;;;;;;;;;;;;;;5095763;28;19908;-56
2022/04/11 12:04:44;;;;;;;;;;;;;;;;;;5073985;28;20445;-57
2022/04/11 12:07:10;;;;;;;;;;;;;;;;;;5093899;28;20286;-51
2022/04/11 12:09:37;;;;;;;;;;;;;;;;;;5093899;28;19908;-49
2022/04/11 12:12:04;;;;;;;;;;;;;;;;;;5095270;28;20007;-51
2022/04/11 12:14:31;;;;;;;;;;;;;;;;;;5094756;28;19912;-50
2022/04/11 12:16:57;;;;;;;;;;;;;;;;;;5110553;28;19907;-55
2022/04/11 12:19:24;;;;;;;;;;;;;;;;;;5115806;28;19912;-52
2022/04/11 12:21:50;;;;;;;;;;;;;;;;;;5115748;28;19912;-53
2022/04/11 12:24:17;;;;;;;;;;;;;;;;;;5115401;28;20267;-53
2022/04/11 12:26:43;;;;;;;;;;;;;;;;;;5115585;28;20328;-54
2022/04/11 12:29:19;;;;;;;;;;;;;;;;;;5115671;28;19912;-52
2022/04/11 12:31:45;;;;;;;;;;;;;;;;;;5114851;28;19908;-53
2022/04/11 12:34:12;;;;;;;;;;;;;;;;;;5115001;28;19908;-58
2022/04/11 12:36:38;;;;;;;;;;;;;;;;;;5115327;28;20358;-54
2022/04/11 12:39:05;;;;;;;;;;;;;;;;;;5114539;28;20432;-55
2022/04/11 12:41:31;;;;;;;;;;;;;;;;;;5115364;28;20424;-57
2022/04/11 12:43:58;;;;;;;;;;;;;;;;;;5115156;28;19961;-55
2022/04/11 12:46:24;;;;;;;;;;;;;;;;;;5114960;28;20266;-50
2022/04/11 12:48:51;;;;;;;;;;;;;;;;;;5115037;28;20370;-56
2022/04/11 12:51:17;;;;;;;;;;;;;;;;;;5112507;28;20426;-49
2022/04/11 12:53:44;;;;;;;;;;;;;;;;;;5094852;28;20370;-52
2022/04/11 12:56:11;;;;;;;;;;;;;;;;;;5094387;28;20295;-52
2022/04/11 12:58:38;;;;;;;;;;;;;;;;;;5093916;28;19931;-58
2022/04/11 13:01:05;;;;;;;;;;;;;;;;;;5115015;28;19907;-54
2022/04/11 13:03:31;;;;;;;;;;;;;;;;;;5114847;28;19908;-57
2022/04/11 13:05:59;;;;;;;;;;;;;;;;;;5114912;28;19916;-55
2022/04/11 13:08:25;;;;;;;;;;;;;;;;;;5114202;28;19930;-54
2022/04/11 13:10:52;;;;;;;;;;;;;;;;;;5114871;28;19908;-57
2022/04/11 13:13:18;;;;;;;;;;;;;;;;;;5114564;28;19908;-52
2022/04/11 13:18:29;;;;;;;;;;;;;;;;;;5114147;28;19929;-57
2022/04/11 13:20:56;;;;;;;;;;;;;;;;;;5114623;28;20292;-49
2022/04/11 13:23:22;;;;;;;;;;;;;;;;;;5114387;28;19908;-56
2022/04/11 13:25:48;;;;;;;;;;;;;;;;;;5113376;28;19907;-55
2022/04/11 13:28:15;;;;;;;;;;;;;;;;;;5113900;28;19908;-52
2022/04/11 13:30:41;;;;;;;;;;;;;;;;;;5114660;28;19995;-57
2022/04/11 13:33:08;;;;;;;;;;;;;;;;;;5114213;28;19908;-57
2022/04/11 13:35:34;;;;;;;;;;;;;;;;;;5114100;28;20251;-50
2022/04/11 13:38:01;;;;;;;;;;;;;;;;;;5114076;28;20269;-54
2022/04/11 13:40:27;;;;;;;;;;;;;;;;;;5113936;28;20462;-45
2022/04/11 13:42:54;;;;;;;;;;;;;;;;;;5094147;28;19909;-55
2022/04/11 13:45:20;;;;;;;;;;;;;;;;;;5094040;28;19916;-52
2022/04/11 13:47:47;;;;;;;;;;;;;;;;;;5104868;28;19907;-50
2022/04/11 13:50:13;;;;;;;;;;;;;;;;;;5113212;28;19908;-43
2022/04/11 13:52:40;;;;;;;;;;;;;;;;;;5113981;28;19908;-50
2022/04/11 13:55:06;;;;;;;;;;;;;;;;;;5114108;28;19916;-49
2022/04/11 13:57:33;;;;;;;;;;;;;;;;;;5114010;28;19964;-48
2022/04/11 13:59:59;;;;;;;;;;;;;;;;;;5113529;28;19908;-46
2022/04/11 14:02:25;;;;;;;;;;;;;;;;;;5113853;28;19961;-46
2022/04/11 14:04:52;;;;;;;;;;;;;;;;;;5113599;28;19985;-49
2022/04/11 14:07:18;;;;;;;;;;;;;;;;;;5113683;28;19961;-51
2022/04/11 14:09:45;;;;;;;;;;;;;;;;;;5114170;28;20002;-50
2022/04/11 14:12:11;;;;;;;;;;;;;;;;;;5113863;28;19908;-49
2022/04/11 14:14:38;;;;;;;;;;;;;;;;;;5113369;28;19908;-43
2022/04/11 14:17:05;;;;;;;;;;;;;;;;;;5113738;28;19919;-43
2022/04/11 14:19:32;;;;;;;;;;;;;;;;;;5113739;28;19951;-48
2022/04/11 14:21:58;;;;;;;;;;;;;;;;;;5113965;28;19908;-53
2022/04/11 14:24:24;;;;;;;;;;;;;;;;;;5113481;28;19983;-47
2022/04/11 14:26:51;;;;;;;;;;;;;;;;;;5113863;28;19908;-52
2022/04/11 14:29:18;;;;;;;;;;;;;;;;;;5114049;28;20282;-52
2022/04/11 14:31:45;;;;;;;;;;;;;;;;;;5113475;28;20223;-53
2022/04/11 14:34:11;;;;;;;;;;;;;;;;;;5113409;28;19908;-57
2022/04/11 14:36:38;;;;;;;;;;;;;;;;;;5113439;28;19916;-52
2022/04/11 14:39:04;;;;;;;;;;;;;;;;;;5113219;28;19915;-53
2022/04/11 14:41:31;;;;;;;;;;;;;;;;;;5113883;28;19918;-50
2022/04/11 14:43:57;;;;;;;;;;;;;;;;;;5113808;28;19914;-50
2022/04/11 14:46:24;;;;;;;;;;;;;;;;;;5113489;28;20342;-54
2022/04/11 14:48:50;;;;;;;;;;;;;;;;;;5113208;28;20410;-55
2022/04/11 14:51:17;;;;;;;;;;;;;;;;;;5113405;28;19908;-53
2022/04/11 14:53:43;;;;;;;;;;;;;;;;;;5113403;28;19908;-52
2022/04/11 14:56:10;;;;;;;;;;;;;;;;;;5113343;28;19930;-56
2022/04/11 14:58:36;;;;;;;;;;;;;;;;;;5113121;28;19933;-55
2022/04/11 15:01:03;;;;;;;;;;;;;;;;;;5114881;28;19908;-57
2022/04/11 15:03:29;;;;;;;;;;;;;;;;;;5116795;28;19908;-56
2022/04/11 15:05:56;;;;;;;;;;;;;;;;;;5117260;28;20006;-55
2022/04/11 15:08:22;;;;;;;;;;;;;;;;;;5116952;28;19914;-54
2022/04/11 15:10:49;;;;;;;;;;;;;;;;;;5117067;28;19916;-53
2022/04/11 15:13:15;;;;;;;;;;;;;;;;;;5117143;28;19908;-44
2022/04/11 15:15:42;;;;;;;;;;;;;;;;;;5116963;28;19919;-46
2022/04/11 15:18:08;;;;;;;;;;;;;;;;;;5116908;28;19950;-42
2022/04/11 15:20:35;;;;;;;;;;;;;;;;;;5117048;28;19907;-51
2022/04/11 15:23:01;;;;;;;;;;;;;;;;;;5117066;28;19998;-52
2022/04/11 15:25:27;;;;;;;;;;;;;;;;;;5117006;28;19960;-51
2022/04/11 15:27:54;;;;;;;;;;;;;;;;;;5117042;28;19939;-52
2022/04/11 15:30:21;;;;;;;;;;;;;;;;;;5116672;28;20366;-53
2022/04/11 15:32:47;;;;;;;;;;;;;;;;;;5117186;28;19918;-55
2022/04/11 15:35:14;;;;;;;;;;;;;;;;;;5116086;28;19916;-45
2022/04/11 15:37:41;;;;;;;;;;;;;;;;;;5116771;28;19914;-50
2022/04/11 15:40:08;;;;;;;;;;;;;;;;;;5116527;28;19915;-53
2022/04/11 15:42:34;;;;;;;;;;;;;;;;;;5116760;28;19907;-51
2022/04/11 15:45:01;;;;;;;;;;;;;;;;;;5116416;28;19999;-45
2022/04/11 15:47:27;;;;;;;;;;;;;;;;;;5116613;28;19908;-44
2022/04/11 15:49:54;;;;;;;;;;;;;;;;;;5116657;28;19908;-58
2022/04/11 15:52:20;;;;;;;;;;;;;;;;;;5116121;28;19919;-49
2022/04/11 15:54:47;;;;;;;;;;;;;;;;;;5116376;28;19943;-51
2022/04/11 15:57:13;;;;;;;;;;;;;;;;;;5116478;28;19934;-54
2022/04/11 15:59:40;;;;;;;;;;;;;;;;;;5115915;28;19950;-55
2022/04/11 16:02:06;;;;;;;;;;;;;;;;;;5116490;28;19915;-56
2022/04/11 16:04:34;;;;;;;;;;;;;;;;;;5116145;27;20459;-52
2022/04/11 16:07:00;;;;;;;;;;;;;;;;;;5114625;28;19908;-56
2022/04/11 16:09:27;;;;;;;;;;;;;;;;;;5116159;28;19907;-56
2022/04/11 16:11:53;;;;;;;;;;;;;;;;;;5115906;28;19945;-46
2022/04/11 16:14:20;;;;;;;;;;;;;;;;;;5115063;28;19908;-54
2022/04/11 16:16:46;;;;;;;;;;;;;;;;;;5116218;28;19915;-57
2022/04/11 16:19:12;;;;;;;;;;;;;;;;;;5115868;28;20362;-56
2022/04/11 16:21:40;;;;;;;;;;;;;;;;;;5115631;28;20366;-55
2022/04/11 16:24:06;;;;;;;;;;;;;;;;;;5116048;28;20022;-57
2022/04/11 16:26:33;;;;;;;;;;;;;;;;;;5116030;28;20370;-56
2022/04/11 16:28:59;;;;;;;;;;;;;;;;;;5114457;28;20296;-58
2022/04/11 16:31:26;;;;;;;;;;;;;;;;;;5115649;28;19951;-53
2022/04/11 16:33:52;;;;;;;;;;;;;;;;;;5115353;28;19911;-49
2022/04/11 16:36:19;;;;;;;;;;;;;;;;;;5115635;28;19959;-51
2022/04/11 16:38:45;;;;;;;;;;;;;;;;;;5115495;28;19933;-51
2022/04/11 16:41:14;;;;;;;;;;;;;;;;;;5115966;28;19950;-52
2022/04/11 16:43:41;;;;;;;;;;;;;;;;;;5115416;28;19996;-56
2022/04/11 16:46:09;;;;;;;;;;;;;;;;;;5114784;28;19919;-52